| time (UTC) | temp F | wind direction | speed MPH | gust MPH | rain 1hr in | rain 24hr in | rain mn in | humidity % | barometer mb |
| 20260508063053 | 50 | 355 | 0.0 | 0.0 | 0.00 | 0.00 | 0.00 | 42 | 1023.7 |
| 20260508061549 | 49 | 355 | 0.0 | 0.0 | 0.00 | 0.00 | 0.00 | 45 | 1023.5 |
| 20260508060046 | 48 | 355 | 0.0 | 0.0 | 0.00 | 0.00 | 0.00 | 46 | 1023.4 |
| 20260508054542 | 46 | 335 | 0.0 | 0.0 | 0.00 | 0.00 | 0.00 | 51 | 1023.3 |
| 20260508053037 | 44 | 335 | 0.0 | 0.0 | 0.00 | 0.00 | 0.00 | 60 | 1023.2 |
| 20260508051532 | 41 | 335 | 0.0 | 0.0 | 0.00 | 0.00 | 0.00 | 71 | 1023.1 |
| 20260508050031 | 38 | 335 | 0.0 | 0.0 | 0.00 | 0.00 | 0.00 | 77 | 1023.0 |
| 20260508044528 | 36 | 335 | 0.0 | 0.0 | 0.00 | 0.00 | 0.00 | 80 | 1022.9 |
| 20260508043027 | 33 | 335 | 0.0 | 0.0 | 0.00 | 0.00 | 0.00 | 85 | 1022.9 |
| 20260508041525 | 31 | 335 | 0.0 | 0.0 | 0.00 | 0.00 | 0.00 | 87 | 1022.8 |
| 20260508040024 | 30 | 335 | 0.0 | 0.0 | 0.00 | 0.00 | 0.00 | 88 | 1022.6 |
| 20260508034522 | 28 | 335 | 0.0 | 0.0 | 0.00 | 0.00 | 0.00 | 91 | 1022.4 |
| 20260508033020 | 26 | 335 | 0.0 | 0.0 | 0.00 | 0.00 | 0.00 | 91 | 1022.2 |
| 20260508031518 | 25 | 335 | 0.0 | 0.0 | 0.00 | 0.00 | 0.00 | 91 | 1022.1 |
| 20260508030018 | 24 | 335 | 0.0 | 0.0 | 0.00 | 0.00 | 0.00 | 90 | 1022.0 |
| 20260508024516 | 24 | 335 | 0.0 | 0.0 | 0.00 | 0.00 | 0.00 | 89 | 1021.8 |
| 20260508023013 | 24 | 335 | 0.0 | 0.0 | 0.00 | 0.00 | 0.00 | 87 | 1021.7 |
| 20260508021521 | 25 | 335 | 0.0 | 0.0 | 0.00 | 0.00 | 0.00 | 87 | 1021.4 |
| 20260508020007 | 25 | 335 | 0.0 | 0.0 | 0.00 | 0.00 | 0.00 | 87 | 1021.2 |
| 20260508014505 | 26 | 335 | 0.0 | 0.0 | 0.00 | 0.00 | 0.00 | 87 | 1021.0 |
| 20260508013002 | 26 | 335 | 0.0 | 0.0 | 0.00 | 0.00 | 0.00 | 87 | 1020.8 |
| 20260508011600 | 26 | 335 | 0.0 | 0.0 | 0.00 | 0.00 | 0.00 | 86 | 1020.7 |
| 20260508010058 | 26 | 335 | 0.0 | 0.0 | 0.00 | 0.00 | 0.00 | 84 | 1020.5 |
| 20260508004609 | 27 | 335 | 0.0 | 0.0 | 0.00 | 0.00 | 0.00 | 83 | 1020.5 |
| 20260508003054 | 27 | 335 | 0.0 | 0.0 | 0.00 | 0.00 | 0.00 | 83 | 1020.2 |
| 20260508001550 | 28 | 335 | 0.0 | 0.0 | 0.00 | 0.00 | 0.00 | 81 | 1020.0 |
| 20260508000047 | 29 | 335 | 0.0 | 0.0 | 0.00 | 0.00 | 0.00 | 78 | 1019.7 |
| 20260507234543 | 31 | 335 | 0.0 | 0.0 | 0.00 | 0.00 | 0.00 | 75 | 1019.6 |
| 20260507233040 | 32 | 335 | 0.0 | 0.0 | 0.00 | 0.00 | 0.00 | 72 | 1019.5 |
| 20260507231533 | 34 | 335 | 0.0 | 0.0 | 0.00 | 0.00 | 0.00 | 70 | 1019.3 |
| 20260507230030 | 35 | 335 | 0.0 | 0.0 | 0.00 | 0.00 | 0.00 | 71 | 1019.2 |
| 20260507224534 | 36 | 335 | 0.0 | 0.0 | 0.00 | 0.00 | 0.00 | 69 | 1019.1 |
| 20260507223026 | 37 | 335 | 0.0 | 0.0 | 0.00 | 0.00 | 0.00 | 66 | 1018.9 |
| 20260507221523 | 37 | 335 | 0.0 | 0.0 | 0.00 | 0.00 | 0.00 | 67 | 1018.7 |
| 20260507220022 | 36 | 335 | 0.0 | 0.0 | 0.00 | 0.00 | 0.00 | 66 | 1018.6 |
| 20260507214521 | 37 | 335 | 0.0 | 0.0 | 0.00 | 0.00 | 0.00 | 63 | 1018.4 |
| 20260507213017 | 39 | 335 | 0.0 | 0.0 | 0.00 | 0.00 | 0.00 | 61 | 1018.2 |
| 20260507211514 | 39 | 335 | 0.0 | 0.0 | 0.00 | 0.00 | 0.00 | 61 | 1017.9 |
| 20260507210030 | 39 | 335 | 0.0 | 0.0 | 0.00 | 0.00 | 0.00 | 60 | 1017.7 |
| 20260507204509 | 41 | 335 | 0.0 | 0.0 | 0.00 | 0.00 | 0.00 | 56 | 1017.4 |
| 20260507203009 | 42 | 335 | 0.0 | 0.0 | 0.00 | 0.00 | 0.00 | 53 | 1017.3 |
| 20260507201509 | 43 | 335 | 0.0 | 0.0 | 0.00 | 0.00 | 0.00 | 52 | 1017.1 |
| 20260507200103 | 44 | 335 | 0.0 | 0.0 | 0.00 | 0.00 | 0.00 | 50 | 1016.9 |
| 20260507194503 | 45 | 335 | 0.0 | 0.0 | 0.00 | 0.00 | 0.00 | 48 | 1016.7 |
| 20260507193059 | 45 | 335 | 0.0 | 0.0 | 0.00 | 0.00 | 0.00 | 46 | 1016.5 |
| 20260507191557 | 46 | 335 | 0.0 | 0.0 | 0.00 | 0.00 | 0.00 | 44 | 1016.3 |
| 20260507190056 | 47 | 335 | 0.0 | 0.0 | 0.00 | 0.00 | 0.00 | 41 | 1016.1 |
| 20260507184604 | 48 | 335 | 0.0 | 0.0 | 0.00 | 0.00 | 0.00 | 39 | 1015.9 |
| 20260507183052 | 49 | 335 | 0.0 | 0.0 | 0.00 | 0.00 | 0.00 | 37 | 1015.8 |
| 20260507181551 | 50 | 335 | 0.0 | 1.0 | 0.00 | 0.00 | 0.00 | 35 | 1015.5 |
| 20260507180051 | 51 | 335 | 0.0 | 2.0 | 0.00 | 0.00 | 0.00 | 33 | 1015.4 |
| 20260507174550 | 52 | 325 | 0.0 | 1.0 | 0.00 | 0.00 | 0.00 | 31 | 1015.2 |
| 20260507173046 | 53 | 355 | 0.0 | 6.0 | 0.00 | 0.00 | 0.00 | 31 | 1015.0 |
| 20260507171549 | 54 | 324 | 0.0 | 3.0 | 0.00 | 0.00 | 0.00 | 27 | 1014.8 |
| 20260507170041 | 55 | 17 | 0.0 | 1.0 | 0.00 | 0.00 | 0.00 | 25 | 1014.6 |
| 20260507164541 | 55 | 11 | 0.0 | 5.0 | 0.00 | 0.00 | 0.00 | 24 | 1014.5 |
| 20260507163039 | 55 | 157 | 0.0 | 2.0 | 0.00 | 0.00 | 0.00 | 24 | 1014.4 |
| 20260507161545 | 56 | 329 | 3.0 | 6.0 | 0.00 | 0.00 | 0.00 | 24 | 1014.3 |
| 20260507160037 | 56 | 331 | 0.0 | 2.0 | 0.00 | 0.00 | 0.00 | 24 | 1014.2 |
| 20260507154537 | 57 | 334 | 0.0 | 5.0 | 0.00 | 0.00 | 0.00 | 23 | 1013.9 |
| 20260507153040 | 57 | 339 | 0.0 | 4.0 | 0.00 | 0.00 | 0.00 | 23 | 1013.7 |
| 20260507151533 | 57 | 355 | 0.0 | 5.0 | 0.00 | 0.00 | 0.00 | 24 | 1013.6 |
| 20260507150032 | 58 | 330 | 2.0 | 6.0 | 0.00 | 0.00 | 0.00 | 23 | 1013.5 |
| 20260507144534 | 58 | 323 | 0.0 | 10.0 | 0.00 | 0.00 | 0.00 | 24 | 1013.3 |
| 20260507143030 | 60 | 274 | 0.0 | 3.0 | 0.00 | 0.00 | 0.00 | 22 | 1013.0 |
| 20260507141529 | 59 | 322 | 0.0 | 4.0 | 0.00 | 0.00 | 0.00 | 22 | 1013.1 |
| 20260507140029 | 58 | 306 | 0.0 | 3.0 | 0.00 | 0.00 | 0.00 | 22 | 1013.0 |
| 20260507134531 | 59 | 5 | 0.0 | 1.0 | 0.00 | 0.00 | 0.00 | 21 | 1013.1 |
| 20260507133028 | 59 | 275 | 0.0 | 4.0 | 0.00 | 0.00 | 0.00 | 20 | 1013.1 |
| 20260507131526 | 60 | 5 | 0.0 | 3.0 | 0.00 | 0.00 | 0.00 | 20 | 1013.0 |
| 20260507130036 | 59 | 296 | 0.0 | 2.0 | 0.00 | 0.00 | 0.00 | 21 | 1013.1 |
| 20260507124528 | 59 | 268 | 0.0 | 3.0 | 0.00 | 0.00 | 0.00 | 20 | 1013.1 |
| 20260507123024 | 59 | 346 | 1.0 | 4.0 | 0.00 | 0.00 | 0.00 | 21 | 1013.0 |
| 20260507121520 | 58 | 360 | 0.0 | 1.0 | 0.00 | 0.00 | 0.00 | 20 | 1013.1 |
| 20260507120023 | 58 | 273 | 0.0 | 7.0 | 0.00 | 0.00 | 0.00 | 22 | 1013.2 |
| 20260507114518 | 58 | 5 | 0.0 | 4.0 | 0.00 | 0.00 | 0.00 | 21 | 1013.1 |
| 20260507113018 | 58 | 132 | 0.0 | 2.0 | 0.00 | 0.00 | 0.00 | 22 | 1013.1 |
| 20260507111517 | 57 | 313 | 0.0 | 3.0 | 0.00 | 0.00 | 0.00 | 21 | 1013.3 |
| 20260507110016 | 58 | 250 | 0.0 | 3.0 | 0.00 | 0.00 | 0.00 | 23 | 1013.2 |
| 20260507104516 | 58 | 30 | 1.0 | 4.0 | 0.00 | 0.00 | 0.00 | 20 | 1013.3 |
| 20260507103025 | 56 | 30 | 0.0 | 2.0 | 0.00 | 0.00 | 0.00 | 24 | 1013.2 |
| 20260507101512 | 56 | 30 | 0.0 | 3.0 | 0.00 | 0.00 | 0.00 | 23 | 1013.2 |
| 20260507100010 | 56 | 36 | 0.0 | 1.0 | 0.00 | 0.00 | 0.00 | 24 | 1013.2 |
| 20260507094511 | 56 | 53 | 0.0 | 3.0 | 0.00 | 0.00 | 0.00 | 25 | 1013.2 |
| 20260507093008 | 55 | 254 | 0.0 | 3.0 | 0.00 | 0.00 | 0.00 | 26 | 1013.2 |
| 20260507091507 | 55 | 248 | 0.0 | 2.0 | 0.00 | 0.00 | 0.00 | 26 | 1013.2 |
| 20260507090007 | 54 | 255 | 1.0 | 7.0 | 0.00 | 0.00 | 0.00 | 26 | 1013.4 |
| 20260507084506 | 55 | 171 | 0.0 | 3.0 | 0.00 | 0.00 | 0.00 | 25 | 1013.4 |
| 20260507083006 | 55 | 243 | 0.0 | 3.0 | 0.00 | 0.00 | 0.00 | 27 | 1013.4 |
| 20260507081503 | 55 | 199 | 0.0 | 3.0 | 0.00 | 0.00 | 0.00 | 27 | 1013.4 |
| 20260507080001 | 54 | 186 | 0.0 | 4.0 | 0.00 | 0.00 | 0.00 | 27 | 1013.5 |
| 20260507074558 | 53 | 346 | 0.0 | 0.0 | 0.00 | 0.00 | 0.00 | 28 | 1013.5 |
| 20260507073055 | 53 | 346 | 0.0 | 0.0 | 0.00 | 0.00 | 0.00 | 29 | 1013.5 |
| 20260507071609 | 52 | 346 | 0.0 | 0.0 | 0.00 | 0.00 | 0.00 | 29 | 1013.6 |
| 20260507070053 | 52 | 346 | 0.0 | 1.0 | 0.00 | 0.00 | 0.00 | 30 | 1013.5 |
| 20260507064549 | 51 | 346 | 0.0 | 0.0 | 0.00 | 0.00 | 0.00 | 34 | 1013.5 |